Time;durP1;ratioP1;P1;durP2;ratioP2;P2;SDS_P1;SDS_P2;PMS_P1;PMS_P2;Temp;Humidity;BMP_temperature;BMP_pressure;BME280_temperature;BME280_humidity;BME280_pressure;Samples;Min_cycle;Max_cycle;Signal;HPM_P1;HPM_P2
2021/01/05 00:00:24;;;;;;;0.80;0.52;;;14.90;55.80;;;;;;4214201;28;20095;-41
2021/01/05 00:02:45;;;;;;;0.00;0.00;;;15.00;55.80;;;;;;4213914;28;20570;-41
2021/01/05 00:05:08;;;;;;;0.00;0.00;;;15.10;55.60;;;;;;4213878;28;20415;-42
2021/01/05 00:07:29;;;;;;;0.00;0.00;;;15.30;55.30;;;;;;4213632;28;20457;-41
2021/01/05 00:09:50;;;;;;;0.00;0.00;;;15.40;54.70;;;;;;4213920;28;20511;-42
2021/01/05 00:12:13;;;;;;;0.45;0.45;;;15.40;54.70;;;;;;4213830;28;20442;-42
2021/01/05 00:14:34;;;;;;;0.00;0.00;;;15.30;54.70;;;;;;4213747;28;20090;-41
2021/01/05 00:16:56;;;;;;;0.10;0.10;;;15.20;55.10;;;;;;4213832;28;20229;-42
2021/01/05 00:19:17;;;;;;;0.00;0.00;;;15.10;55.40;;;;;;4196959;28;20049;-43
2021/01/05 00:21:37;;;;;;;0.00;0.00;;;14.90;55.70;;;;;;4197324;28;20122;-42
2021/01/05 00:23:58;;;;;;;0.00;0.00;;;14.90;55.90;;;;;;4213570;28;20149;-40
2021/01/05 00:26:20;;;;;;;0.00;0.00;;;15.00;55.80;;;;;;4213684;28;20047;-42
2021/01/05 00:28:41;;;;;;;0.20;0.20;;;15.00;55.60;;;;;;4213227;28;20051;-41
2021/01/05 00:31:02;;;;;;;0.63;0.63;;;15.10;55.50;;;;;;4213640;28;20117;-41
2021/01/05 00:33:23;;;;;;;1.77;1.30;;;15.10;55.50;;;;;;4213273;28;20122;-41
2021/01/05 00:35:46;;;;;;;0.10;0.10;;;15.00;55.40;;;;;;4213286;28;20056;-41
2021/01/05 00:38:08;;;;;;;0.00;0.00;;;15.00;55.60;;;;;;4213570;28;20051;-41
2021/01/05 00:40:29;;;;;;;0.22;0.20;;;14.90;55.70;;;;;;4213442;28;20456;-41
2021/01/05 00:42:51;;;;;;;0.00;0.00;;;14.80;55.90;;;;;;4213175;28;20052;-41
2021/01/05 00:45:18;;;;;;;0.00;0.00;;;14.70;56.20;;;;;;4213325;28;20063;-41
2021/01/05 00:47:39;;;;;;;0.00;0.00;;;14.60;56.60;;;;;;4213446;28;20052;-42
2021/01/05 00:50:00;;;;;;;0.00;0.00;;;14.50;56.80;;;;;;4212179;28;20486;-41
2021/01/05 00:52:21;;;;;;;0.00;0.00;;;14.40;57.10;;;;;;4212270;28;20509;-41
2021/01/05 00:54:42;;;;;;;0.10;0.10;;;14.30;57.50;;;;;;4212032;28;20128;-41
2021/01/05 00:57:06;;;;;;;0.00;0.00;;;14.40;57.40;;;;;;4212267;28;20048;-41
2021/01/05 00:59:31;;;;;;;0.10;0.10;;;14.60;56.80;;;;;;4195165;28;20299;-41
2021/01/05 01:01:53;;;;;;;;;;;14.90;56.20;;;;;;4203990;28;20052;-42
2021/01/05 01:04:14;;;;;;;0.00;0.00;;;14.90;56.10;;;;;;4211525;28;19928;-41
2021/01/05 01:06:35;;;;;;;0.00;0.00;;;14.80;56.00;;;;;;4212004;28;20442;-41
2021/01/05 01:08:56;;;;;;;0.00;0.00;;;15.00;55.80;;;;;;4211878;28;20047;-41
2021/01/05 01:11:18;;;;;;;2.63;0.52;;;15.10;55.50;;;;;;4212107;28;20056;-41
2021/01/05 01:13:39;;;;;;;;;;;15.10;55.20;;;;;;4212214;28;20460;-42
2021/01/05 01:15:59;;;;;;;0.00;0.00;;;15.10;55.40;;;;;;4212906;28;19971;-42
2021/01/05 01:18:22;;;;;;;0.00;0.00;;;15.10;55.60;;;;;;4212743;28;20048;-42
2021/01/05 01:20:43;;;;;;;0.00;0.00;;;15.20;55.40;;;;;;4212484;28;20054;-42
2021/01/05 01:23:10;;;;;;;0.00;0.00;;;15.20;55.20;;;;;;4211607;28;20105;-41
2021/01/05 01:25:35;;;;;;;0.00;0.00;;;15.30;55.10;;;;;;4211520;28;20047;-41
2021/01/05 01:27:57;;;;;;;7.63;0.90;;;15.30;55.10;;;;;;4211564;28;20052;-41
2021/01/05 01:30:26;;;;;;;0.00;0.00;;;15.30;55.10;;;;;;4211469;28;20059;-42
2021/01/05 01:32:52;;;;;;;1.13;0.90;;;15.50;54.50;;;;;;4211214;28;20555;-42
2021/01/05 01:35:18;;;;;;;0.03;0.03;;;15.50;54.30;;;;;;4211636;28;20056;-42
2021/01/05 01:37:42;;;;;;;0.00;0.00;;;15.50;54.40;;;;;;4212864;28;20040;-41
2021/01/05 01:40:06;;;;;;;0.00;0.00;;;15.60;54.30;;;;;;4211926;28;20054;-41
2021/01/05 01:42:27;;;;;;;0.00;0.00;;;15.60;54.40;;;;;;4198171;28;20422;-41
2021/01/05 01:44:49;;;;;;;;;;;15.60;54.40;;;;;;4211615;28;20084;-41
2021/01/05 01:47:14;;;;;;;0.00;0.00;;;15.50;54.50;;;;;;4210858;28;19919;-41
2021/01/05 01:49:36;;;;;;;0.00;0.00;;;15.50;54.50;;;;;;4211603;28;20135;-42
2021/01/05 01:51:58;;;;;;;0.10;0.10;;;15.60;54.20;;;;;;4212148;28;20060;-42
2021/01/05 01:54:48;;;;;;;0.00;0.00;;;15.70;54.10;;;;;;4211181;28;20048;-45
2021/01/05 01:57:55;;;;;;;0.00;0.00;;;15.60;54.20;;;;;;4211288;28;20081;-44
2021/01/05 02:00:24;;;;;;;0.00;0.00;;;15.60;54.20;;;;;;4210955;28;20055;-43
2021/01/05 02:03:38;;;;;;;0.00;0.00;;;15.80;53.90;;;;;;4210936;28;20079;-45
2021/01/05 02:06:16;;;;;;;0.00;0.00;;;15.80;53.70;;;;;;4211244;28;20446;-44
2021/01/05 02:08:45;;;;;;;0.30;0.30;;;15.90;53.60;;;;;;4211949;28;20056;-45
2021/01/05 02:11:32;;;;;;;0.00;0.00;;;15.90;53.70;;;;;;4211142;28;20079;-46
2021/01/05 02:14:10;;;;;;;0.00;0.00;;;15.70;53.90;;;;;;4212427;28;20125;-45
2021/01/05 02:16:51;;;;;;;0.00;0.00;;;15.80;53.70;;;;;;4211214;28;20060;-46
2021/01/05 02:19:21;;;;;;;0.00;0.00;;;15.80;53.80;;;;;;4211807;28;20040;-45
2021/01/05 02:21:51;;;;;;;0.00;0.00;;;15.80;54.50;;;;;;4211352;28;20129;-44
2021/01/05 02:24:29;;;;;;;0.35;0.35;;;15.70;54.10;;;;;;4211289;28;20575;-42
2021/01/05 02:26:59;;;;;;;0.00;0.00;;;15.70;54.20;;;;;;4194379;28;20049;-42
2021/01/05 02:29:24;;;;;;;0.35;0.35;;;15.70;54.10;;;;;;4194284;28;20135;-42
2021/01/05 02:31:59;;;;;;;0.10;0.10;;;15.70;54.20;;;;;;4200112;28;20154;-42
2021/01/05 02:34:44;;;;;;;1.45;0.22;;;15.70;54.30;;;;;;4194252;28;20055;-41
2021/01/05 02:37:36;;;;;;;0.00;0.00;;;15.60;54.30;;;;;;4201010;28;20054;-41
2021/01/05 02:40:32;;;;;;;0.00;0.00;;;15.80;54.20;;;;;;4211661;28;20506;-40
2021/01/05 02:43:31;;;;;;;0.00;0.00;;;15.90;53.90;;;;;;4206621;28;20052;-41
2021/01/05 02:46:35;;;;;;;0.00;0.00;;;15.90;53.70;;;;;;4211997;28;20055;-41
2021/01/05 02:49:26;;;;;;;0.25;0.25;;;16.00;53.60;;;;;;4211921;28;20502;-41
2021/01/05 02:52:43;;;;;;;0.30;0.30;;;16.20;53.30;;;;;;4211693;28;20461;-41
2021/01/05 02:55:49;;;;;;;0.00;0.00;;;16.20;53.30;;;;;;4211849;28;20126;-41
2021/01/05 02:59:09;;;;;;;0.00;0.00;;;16.00;53.50;;;;;;4214455;28;20809;-41
2021/01/05 03:02:29;;;;;;;0.00;0.00;;;15.90;53.80;;;;;;4214723;28;20494;-41
2021/01/05 03:05:10;;;;;;;0.05;0.05;;;15.70;54.30;;;;;;4214900;28;20158;-41
2021/01/05 03:07:51;;;;;;;0.10;0.10;;;15.80;54.40;;;;;;4214894;28;20494;-41
2021/01/05 03:10:42;;;;;;;0.20;0.20;;;15.80;54.20;;;;;;4215586;28;20075;-41
2021/01/05 03:13:43;;;;;;;0.73;0.20;;;15.80;54.30;;;;;;4214742;28;20105;-41
2021/01/05 03:16:28;;;;;;;0.00;0.00;;;15.80;54.10;;;;;;4214477;28;20051;-41
2021/01/05 03:19:16;;;;;;;0.10;0.10;;;15.70;55.00;;;;;;4214154;28;20052;-41
2021/01/05 03:22:02;;;;;;;0.10;0.10;;;15.70;54.30;;;;;;4214252;28;20056;-41
2021/01/05 03:24:54;;;;;;;0.00;0.00;;;15.60;54.60;;;;;;4167166;28;20065;-41
2021/01/05 03:27:35;;;;;;;0.03;0.03;;;15.50;54.80;;;;;;4214540;28;20126;-41
2021/01/05 03:30:23;;;;;;;0.00;0.00;;;15.50;54.80;;;;;;4214812;28;20056;-43
2021/01/05 03:33:04;;;;;;;0.00;0.00;;;15.60;54.80;;;;;;4214778;28;20413;-41
2021/01/05 03:35:44;;;;;;;0.00;0.00;;;15.80;54.30;;;;;;4214344;28;20217;-41
2021/01/05 03:38:25;;;;;;;0.00;0.00;;;16.10;53.80;;;;;;4213816;28;20410;-41
2021/01/05 03:41:04;;;;;;;0.00;0.00;;;16.10;53.60;;;;;;4214082;28;20086;-41
2021/01/05 03:43:44;;;;;;;0.00;0.00;;;16.10;53.60;;;;;;4197355;28;20105;-41
2021/01/05 03:46:26;;;;;;;0.00;0.00;;;15.90;53.70;;;;;;4197591;28;20528;-42
2021/01/05 03:49:23;;;;;;;0.10;0.10;;;15.90;53.90;;;;;;4162369;28;20049;-40
2021/01/05 03:52:11;;;;;;;0.00;0.00;;;15.80;54.10;;;;;;4181824;28;20135;-43
2021/01/05 03:54:51;;;;;;;0.00;0.00;;;15.80;54.10;;;;;;4214499;28;20048;-41
2021/01/05 03:57:31;;;;;;;0.00;0.00;;;15.60;54.30;;;;;;4214541;28;20044;-42
2021/01/05 04:00:15;;;;;;;0.05;0.05;;;15.50;54.60;;;;;;4214002;28;20052;-42
2021/01/05 04:02:36;;;;;;;0.00;0.00;;;15.60;54.90;;;;;;4214482;28;20130;-41
2021/01/05 04:04:58;;;;;;;0.00;0.00;;;15.70;54.60;;;;;;4214372;28;20129;-41
2021/01/05 04:07:19;;;;;;;0.45;0.45;;;15.70;54.40;;;;;;4214112;28;20105;-41
2021/01/05 04:09:40;;;;;;;0.05;0.05;;;15.70;54.50;;;;;;4212794;28;20075;-42
2021/01/05 04:12:02;;;;;;;0.30;0.22;;;15.60;54.70;;;;;;4213353;28;20048;-41
2021/01/05 04:14:23;;;;;;;0.35;0.35;;;15.60;54.80;;;;;;4214327;28;20052;-41
2021/01/05 04:16:46;;;;;;;2.90;1.85;;;15.70;54.50;;;;;;4213787;28;20121;-42
2021/01/05 04:19:07;;;;;;;0.00;0.00;;;15.80;54.20;;;;;;4213897;28;20067;-41
2021/01/05 04:21:29;;;;;;;0.00;0.00;;;15.80;54.10;;;;;;4214137;28;20124;-41
2021/01/05 04:23:50;;;;;;;0.00;0.00;;;15.80;54.20;;;;;;4197476;28;20131;-41
2021/01/05 04:26:11;;;;;;;0.70;0.70;;;15.80;54.10;;;;;;4214021;28;20056;-41
2021/01/05 04:28:31;;;;;;;0.20;0.20;;;15.90;53.90;;;;;;4212489;28;20044;-41
2021/01/05 04:30:52;;;;;;;0.05;0.05;;;15.90;53.80;;;;;;4213650;28;20052;-41
2021/01/05 04:33:14;;;;;;;0.00;0.00;;;15.80;53.80;;;;;;4213208;28;20071;-41
2021/01/05 04:35:35;;;;;;;0.00;0.00;;;15.70;54.10;;;;;;4213612;28;20344;-41
2021/01/05 04:37:57;;;;;;;;;;;15.80;54.00;;;;;;4213868;28;20048;-41
2021/01/05 04:40:28;;;;;;;0.00;0.00;;;15.90;53.80;;;;;;4213641;28;20397;-41
2021/01/05 04:43:05;;;;;;;0.00;0.00;;;15.90;53.70;;;;;;4213397;28;20071;-41
2021/01/05 04:45:27;;;;;;;0.00;0.00;;;15.90;53.80;;;;;;4213156;28;20052;-41
2021/01/05 04:48:01;;;;;;;0.00;0.00;;;15.80;53.80;;;;;;4213877;28;20506;-40
2021/01/05 04:50:28;;;;;;;0.20;0.20;;;15.60;54.10;;;;;;4212921;28;20207;-41
2021/01/05 04:52:56;;;;;;;0.20;0.20;;;15.50;54.50;;;;;;4213221;28;20054;-41
2021/01/05 04:55:49;;;;;;;0.00;0.00;;;15.50;54.60;;;;;;4213152;28;20067;-41
2021/01/05 04:58:16;;;;;;;0.00;0.00;;;15.70;54.50;;;;;;4213285;28;20130;-41
2021/01/05 05:00:39;;;;;;;0.00;0.00;;;15.80;54.10;;;;;;4212825;28;20055;-41
2021/01/05 05:03:06;;;;;;;0.00;0.00;;;15.90;53.80;;;;;;4213057;28;20055;-40
2021/01/05 05:05:44;;;;;;;0.00;0.00;;;15.90;53.70;;;;;;4213461;28;20419;-42
2021/01/05 05:08:27;;;;;;;0.10;0.10;;;15.90;53.80;;;;;;4213161;28;20048;-41
2021/01/05 05:10:53;;;;;;;0.00;0.00;;;15.80;53.90;;;;;;4213128;28;20084;-41
2021/01/05 05:13:19;;;;;;;0.00;0.00;;;15.70;54.10;;;;;;4212956;28;20063;-43
2021/01/05 05:15:46;;;;;;;0.73;0.73;;;15.80;54.00;;;;;;4212781;28;20535;-43
2021/01/05 05:18:17;;;;;;;0.00;0.00;;;15.90;53.80;;;;;;4212372;28;20056;-43
2021/01/05 05:21:06;;;;;;;0.00;0.00;;;16.10;53.30;;;;;;4195834;28;20129;-41
2021/01/05 05:23:47;;;;;;;0.00;0.00;;;16.00;54.10;;;;;;4195873;28;20060;-41
2021/01/05 05:26:15;;;;;;;0.00;0.00;;;15.90;53.50;;;;;;4196086;28;20078;-40
2021/01/05 05:28:44;;;;;;;0.00;0.00;;;16.00;53.60;;;;;;4196432;28;20167;-41
2021/01/05 05:31:06;;;;;;;0.00;0.00;;;16.00;53.30;;;;;;4196587;28;20052;-41
2021/01/05 05:33:33;;;;;;;0.00;0.00;;;15.90;53.70;;;;;;4195772;28;20129;-41
2021/01/05 05:36:08;;;;;;;0.28;0.28;;;15.90;53.90;;;;;;4195698;28;20473;-40
2021/01/05 05:38:39;;;;;;;0.00;0.00;;;15.90;54.00;;;;;;4195846;28;20052;-41
2021/01/05 05:41:14;;;;;;;0.10;0.10;;;15.80;53.90;;;;;;4196427;28;20091;-41
2021/01/05 05:43:46;;;;;;;0.00;0.00;;;15.80;53.90;;;;;;4195799;28;20056;-42
2021/01/05 05:46:09;;;;;;;0.00;0.00;;;15.70;54.30;;;;;;4195624;28;20715;-42
2021/01/05 05:48:39;;;;;;;0.00;0.00;;;15.70;54.20;;;;;;4204963;28;20059;-41
2021/01/05 05:51:07;;;;;;;0.00;0.00;;;15.70;54.30;;;;;;4211787;28;20533;-41
2021/01/05 05:53:32;;;;;;;0.00;0.00;;;15.60;54.60;;;;;;4212360;28;20426;-41
2021/01/05 05:55:58;;;;;;;0.00;0.00;;;15.50;54.60;;;;;;4212376;28;20229;-41
2021/01/05 05:58:24;;;;;;;0.00;0.00;;;15.50;54.70;;;;;;4212012;28;20413;-41
2021/01/05 06:00:48;;;;;;;0.40;0.40;;;15.60;54.60;;;;;;4212357;28;20052;-41
2021/01/05 06:03:12;;;;;;;0.00;0.00;;;15.60;54.60;;;;;;4195636;28;20102;-41
2021/01/05 06:05:35;;;;;;;0.00;0.00;;;15.70;54.50;;;;;;4195416;28;20056;-42
2021/01/05 06:07:57;;;;;;;0.00;0.00;;;15.90;54.20;;;;;;4209534;28;20565;-43
2021/01/05 06:10:17;;;;;;;0.20;0.20;;;16.10;53.70;;;;;;4212752;28;20131;-41
2021/01/05 06:12:38;;;;;;;0.13;0.13;;;16.30;53.20;;;;;;4212531;28;20052;-41
2021/01/05 06:15:00;;;;;;;0.00;0.00;;;16.40;52.90;;;;;;4212287;28;20516;-42
2021/01/05 06:17:20;;;;;;;0.10;0.10;;;16.40;52.90;;;;;;4212015;28;20052;-42
2021/01/05 06:19:41;;;;;;;0.05;0.05;;;16.30;52.90;;;;;;4195937;28;20507;-42
2021/01/05 06:22:02;;;;;;;0.00;0.00;;;16.30;52.90;;;;;;4202884;28;20551;-42
2021/01/05 06:24:23;;;;;;;0.00;0.00;;;16.20;53.10;;;;;;4212063;28;20056;-42
2021/01/05 06:26:43;;;;;;;0.00;0.00;;;16.00;53.50;;;;;;4211862;28;20817;-41
2021/01/05 06:29:05;;;;;;;0.00;0.00;;;16.00;53.70;;;;;;4212041;28;20547;-43
2021/01/05 06:31:27;;;;;;;0.00;0.00;;;16.00;53.70;;;;;;4212179;28;20048;-41
2021/01/05 06:33:47;;;;;;;0.00;0.00;;;15.90;53.90;;;;;;4215346;28;20138;-42
2021/01/05 06:36:08;;;;;;;0.00;0.00;;;15.90;54.00;;;;;;4214972;28;20051;-42
2021/01/05 06:38:29;;;;;;;0.00;0.00;;;15.80;54.00;;;;;;4198535;28;20491;-42
2021/01/05 06:40:50;;;;;;;0.00;0.00;;;15.70;54.20;;;;;;4198592;28;20431;-42
2021/01/05 06:43:11;;;;;;;0.50;0.50;;;15.60;54.40;;;;;;4199012;28;20131;-41
2021/01/05 06:45:33;;;;;;;0.13;0.13;;;15.60;54.60;;;;;;4198863;28;20067;-42
2021/01/05 06:47:56;;;;;;;0.00;0.00;;;15.60;54.80;;;;;;4213178;28;20078;-42
2021/01/05 06:50:18;;;;;;;0.00;0.00;;;15.50;54.80;;;;;;4213854;28;20131;-41
2021/01/05 06:52:39;;;;;;;0.52;0.52;;;15.40;55.10;;;;;;4211702;28;20138;-43
2021/01/05 06:54:59;;;;;;;0.00;0.00;;;15.50;55.20;;;;;;4215200;28;20421;-42
2021/01/05 06:57:20;;;;;;;0.00;0.00;;;15.70;54.70;;;;;;4214660;28;20084;-43
2021/01/05 06:59:41;;;;;;;0.00;0.00;;;15.70;54.50;;;;;;4215176;28;20402;-44
2021/01/05 07:02:05;;;;;;;0.00;0.00;;;15.90;54.30;;;;;;4215487;28;20139;-41
2021/01/05 07:04:28;;;;;;;0.00;0.00;;;15.90;54.00;;;;;;4214835;28;20052;-39
2021/01/05 07:06:49;;;;;;;0.00;0.00;;;15.90;54.10;;;;;;4214870;28;20052;-39
2021/01/05 07:09:10;;;;;;;0.20;0.20;;;15.90;54.70;;;;;;4215275;28;20080;-39
2021/01/05 07:11:31;;;;;;;0.00;0.00;;;15.80;55.90;;;;;;4215409;28;20056;-39
2021/01/05 07:13:52;;;;;;;0.00;0.00;;;15.80;55.30;;;;;;4215125;28;20099;-40
2021/01/05 07:16:12;;;;;;;0.00;0.00;;;15.80;55.00;;;;;;4214576;28;20137;-39
2021/01/05 07:18:34;;;;;;;0.00;0.00;;;15.80;55.10;;;;;;4213448;28;20316;-39
2021/01/05 07:20:55;;;;;;;0.00;0.00;;;15.70;55.30;;;;;;4214679;28;20055;-39
2021/01/05 07:23:16;;;;;;;0.00;0.00;;;15.70;55.70;;;;;;4215072;28;20542;-39
2021/01/05 07:25:37;;;;;;;0.30;0.30;;;15.70;55.60;;;;;;4214346;28;20055;-39
2021/01/05 07:27:58;;;;;;;0.13;0.13;;;15.70;55.40;;;;;;4198122;28;20533;-39
2021/01/05 07:30:21;;;;;;;0.00;0.00;;;15.90;55.10;;;;;;4198247;28;20052;-39
2021/01/05 07:32:42;;;;;;;0.00;0.00;;;16.10;54.90;;;;;;4213599;28;20117;-40
2021/01/05 07:35:04;;;;;;;0.00;0.00;;;16.20;54.50;;;;;;4213112;28;20730;-40
2021/01/05 07:37:29;;;;;;;0.00;0.00;;;16.30;54.20;;;;;;4214261;28;20046;-40
2021/01/05 07:39:50;;;;;;;9.85;0.90;;;16.20;54.20;;;;;;4215012;28;20448;-39
2021/01/05 07:42:16;;;;;;;0.00;0.00;;;16.00;54.60;;;;;;4213312;28;20052;-39
2021/01/05 07:44:37;;;;;;;0.00;0.00;;;16.00;54.70;;;;;;4212202;28;20572;-39
2021/01/05 07:46:58;;;;;;;1.27;1.05;;;16.10;54.10;;;;;;4214607;28;20059;-40
2021/01/05 07:49:19;;;;;;;0.00;0.00;;;16.30;53.70;;;;;;4214408;28;20578;-39
2021/01/05 07:51:46;;;;;;;0.00;0.00;;;16.40;53.80;;;;;;4214132;28;20052;-39
2021/01/05 07:54:08;;;;;;;0.00;0.00;;;16.30;53.80;;;;;;4214461;28;20399;-40
2021/01/05 07:56:29;;;;;;;0.00;0.00;;;16.30;53.90;;;;;;4214516;28;20071;-40
2021/01/05 07:58:50;;;;;;;;;;;16.10;54.30;;;;;;4199525;28;20080;-40
2021/01/05 08:01:11;;;;;;;0.10;0.10;;;16.00;54.70;;;;;;4213913;28;19920;-39
2021/01/05 08:03:32;;;;;;;0.00;0.00;;;15.90;55.00;;;;;;4214240;28;20675;-40
2021/01/05 08:05:53;;;;;;;0.00;0.00;;;15.90;55.10;;;;;;4213855;28;20063;-40
2021/01/05 08:08:15;;;;;;;0.00;0.00;;;15.90;55.00;;;;;;4213657;28;20123;-40
2021/01/05 08:10:38;;;;;;;0.00;0.00;;;15.70;55.20;;;;;;4213660;28;20050;-40
2021/01/05 08:13:01;;;;;;;0.10;0.08;;;15.60;55.40;;;;;;4214352;28;20051;-40
2021/01/05 08:15:24;;;;;;;0.00;0.00;;;15.60;55.60;;;;;;4214021;28;20056;-39
2021/01/05 08:17:44;;;;;;;0.00;0.00;;;15.60;55.60;;;;;;4214005;28;20485;-39
2021/01/05 08:20:07;;;;;;;0.00;0.00;;;15.90;55.30;;;;;;4198502;28;20106;-39
2021/01/05 08:22:28;;;;;;;0.00;0.00;;;15.90;54.90;;;;;;4213696;28;20082;-39
2021/01/05 08:24:49;;;;;;;0.00;0.00;;;15.90;54.70;;;;;;4213618;28;20461;-40
2021/01/05 08:27:12;;;;;;;0.15;0.15;;;15.90;55.20;;;;;;4213276;28;20491;-39
2021/01/05 08:29:33;;;;;;;0.00;0.00;;;15.90;55.30;;;;;;4213657;28;20135;-40
2021/01/05 08:31:55;;;;;;;0.28;0.28;;;15.90;55.20;;;;;;4213872;28;20405;-39
2021/01/05 08:34:17;;;;;;;0.00;0.00;;;15.80;55.60;;;;;;4208422;28;20186;-39
2021/01/05 08:36:38;;;;;;;4.40;0.52;;;15.80;55.80;;;;;;4213898;28;20064;-40
2021/01/05 08:38:59;;;;;;;0.00;0.00;;;15.80;55.70;;;;;;4213905;28;20052;-39
2021/01/05 08:41:20;;;;;;;0.00;0.00;;;15.90;55.60;;;;;;4213886;28;20129;-39
2021/01/05 08:43:43;;;;;;;0.03;0.03;;;15.80;55.70;;;;;;4213625;28;20050;-42
2021/01/05 08:46:04;;;;;;;0.50;0.50;;;15.70;55.70;;;;;;4213653;28;20060;-40
2021/01/05 08:48:25;;;;;;;0.00;0.00;;;15.70;55.80;;;;;;4213419;28;20127;-39
2021/01/05 08:50:46;;;;;;;0.00;0.00;;;15.70;55.80;;;;;;4213859;28;20519;-39
2021/01/05 08:53:10;;;;;;;0.22;0.22;;;15.80;55.90;;;;;;4213496;28;20056;-41
2021/01/05 08:55:35;;;;;;;0.00;0.00;;;15.80;55.70;;;;;;4213222;28;20569;-39
2021/01/05 08:57:56;;;;;;;0.00;0.00;;;15.90;55.60;;;;;;4198077;28;20048;-39
2021/01/05 09:00:19;;;;;;;0.00;0.00;;;16.00;55.70;;;;;;4213293;28;20048;-40
2021/01/05 09:02:40;;;;;;;0.00;0.00;;;15.80;55.60;;;;;;4212926;28;20452;-39
2021/01/05 09:05:01;;;;;;;0.00;0.00;;;15.80;55.90;;;;;;4206421;28;20056;-46
2021/01/05 09:07:23;;;;;;;0.00;0.00;;;15.70;55.80;;;;;;4213431;28;20113;-40
2021/01/05 09:09:44;;;;;;;0.00;0.00;;;15.80;56.10;;;;;;4212967;28;20450;-39
2021/01/05 09:12:06;;;;;;;0.10;0.10;;;15.70;56.00;;;;;;4212904;28;20525;-39
2021/01/05 09:14:29;;;;;;;0.00;0.00;;;15.50;56.40;;;;;;4212657;28;20074;-39
2021/01/05 09:16:56;;;;;;;0.03;0.03;;;15.40;56.80;;;;;;4213362;28;20044;-39
2021/01/05 09:19:17;;;;;;;0.75;0.75;;;15.30;57.00;;;;;;4212321;28;20473;-40
2021/01/05 09:21:38;;;;;;;0.00;0.00;;;15.20;57.10;;;;;;4212871;28;20433;-39
2021/01/05 09:24:00;;;;;;;0.00;0.00;;;15.10;57.40;;;;;;4212992;28;20064;-39
2021/01/05 09:26:24;;;;;;;0.00;0.00;;;15.10;57.40;;;;;;4212123;28;20044;-40
2021/01/05 09:28:44;;;;;;;0.00;0.00;;;15.30;57.30;;;;;;4212852;28;20076;-40
2021/01/05 09:31:06;;;;;;;0.00;0.00;;;15.50;57.10;;;;;;4212957;28;20044;-40
2021/01/05 09:33:28;;;;;;;2.00;1.85;;;15.60;56.70;;;;;;4211018;28;20040;-39
2021/01/05 09:35:49;;;;;;;0.00;0.00;;;15.60;56.70;;;;;;4205602;28;20054;-40
2021/01/05 09:38:11;;;;;;;0.00;0.00;;;15.60;56.70;;;;;;4212425;28;20422;-40
2021/01/05 09:40:32;;;;;;;0.00;0.00;;;15.60;56.70;;;;;;4212121;28;20044;-39
2021/01/05 09:42:53;;;;;;;0.00;0.00;;;15.50;56.70;;;;;;4212093;28;20059;-40
2021/01/05 09:45:15;;;;;;;0.63;0.63;;;15.40;57.00;;;;;;4212093;28;20060;-40
2021/01/05 09:47:36;;;;;;;0.00;0.00;;;15.40;57.10;;;;;;4208483;28;20079;-39
2021/01/05 09:49:58;;;;;;;0.20;0.20;;;15.40;57.10;;;;;;4210696;28;20097;-39
2021/01/05 09:52:19;;;;;;;0.00;0.00;;;15.40;57.30;;;;;;4208456;28;20055;-39
2021/01/05 09:54:42;;;;;;;0.08;0.08;;;15.30;57.60;;;;;;4212452;28;20060;-39
2021/01/05 09:57:03;;;;;;;0.20;0.20;;;15.30;57.80;;;;;;4211789;28;20060;-39
2021/01/05 09:59:26;;;;;;;0.00;0.00;;;15.30;57.60;;;;;;4204170;28;20048;-39
2021/01/05 10:01:48;;;;;;;0.00;0.00;;;15.30;57.80;;;;;;4211782;28;20127;-39
2021/01/05 10:04:09;;;;;;;0.00;0.00;;;15.30;57.90;;;;;;4212064;28;20062;-39
2021/01/05 10:06:33;;;;;;;0.00;0.00;;;15.20;58.00;;;;;;4210842;28;20079;-39
2021/01/05 10:08:54;;;;;;;0.00;0.00;;;15.10;57.90;;;;;;4212175;28;20135;-40
2021/01/05 10:11:15;;;;;;;0.00;0.00;;;15.00;58.00;;;;;;4212263;28;20429;-39
2021/01/05 10:13:36;;;;;;;0.40;0.40;;;15.00;58.30;;;;;;4211705;28;20047;-39
2021/01/05 10:15:57;;;;;;;0.00;0.00;;;14.90;58.60;;;;;;4212284;28;20048;-40
2021/01/05 10:18:18;;;;;;;0.60;0.60;;;14.90;58.80;;;;;;4212196;28;20121;-39
2021/01/05 10:20:39;;;;;;;0.00;0.00;;;15.10;59.30;;;;;;4211419;28;20051;-39
2021/01/05 10:23:01;;;;;;;0.20;0.20;;;15.40;57.90;;;;;;4211765;28;20122;-41
2021/01/05 10:25:22;;;;;;;0.00;0.00;;;15.60;57.60;;;;;;4211839;28;20113;-40
2021/01/05 10:27:43;;;;;;;0.00;0.00;;;15.70;57.90;;;;;;4208910;28;20514;-39
2021/01/05 10:30:10;;;;;;;0.00;0.00;;;15.50;57.30;;;;;;4212538;28;20898;-39
2021/01/05 10:32:31;;;;;;;0.00;0.00;;;15.40;57.50;;;;;;4204504;28;20048;-39
2021/01/05 10:34:52;;;;;;;0.00;0.00;;;15.40;57.70;;;;;;4212001;28;20067;-39
2021/01/05 10:37:14;;;;;;;0.00;0.00;;;15.40;57.80;;;;;;4210788;28;20403;-40
2021/01/05 10:39:35;;;;;;;0.00;0.00;;;15.30;57.90;;;;;;4201430;28;20052;-40
2021/01/05 10:41:56;;;;;;;0.38;0.38;;;15.30;58.10;;;;;;4209615;28;20068;-40
2021/01/05 10:44:20;;;;;;;0.00;0.00;;;15.20;58.20;;;;;;4211631;28;20048;-41
2021/01/05 10:46:41;;;;;;;0.00;0.00;;;15.30;57.90;;;;;;4211691;28;20060;-40
2021/01/05 10:49:02;;;;;;;0.20;0.20;;;15.30;58.00;;;;;;4210341;28;20052;-40
2021/01/05 10:51:23;;;;;;;0.00;0.00;;;15.20;58.10;;;;;;4211906;28;20063;-41
2021/01/05 10:53:45;;;;;;;0.00;0.00;;;15.10;58.40;;;;;;4211855;28;20044;-41
2021/01/05 10:56:13;;;;;;;0.20;0.20;;;15.00;58.30;;;;;;4210413;28;20052;-41
2021/01/05 10:58:34;;;;;;;0.00;0.00;;;15.00;58.40;;;;;;4212147;28;20052;-41
2021/01/05 11:00:55;;;;;;;0.00;0.00;;;15.00;58.50;;;;;;4212000;28;20154;-41
2021/01/05 11:03:17;;;;;;;0.05;0.05;;;15.10;58.30;;;;;;4212910;28;20079;-41
2021/01/05 11:05:37;;;;;;;0.00;0.00;;;15.20;58.20;;;;;;4200951;28;20094;-42
2021/01/05 11:07:59;;;;;;;0.22;0.22;;;15.30;58.10;;;;;;4211609;28;20098;-41
2021/01/05 11:10:21;;;;;;;0.00;0.00;;;15.20;59.10;;;;;;4208901;28;20071;-41
2021/01/05 11:12:42;;;;;;;;;;;15.10;58.50;;;;;;4195754;28;20136;-41
2021/01/05 11:15:05;;;;;;;0.00;0.00;;;15.00;58.70;;;;;;4195521;28;19928;-41
2021/01/05 11:17:26;;;;;;;0.00;0.00;;;15.00;59.00;;;;;;4203351;28;20587;-40
2021/01/05 11:19:47;;;;;;;0.10;0.10;;;14.90;59.10;;;;;;4213792;28;20169;-40
2021/01/05 11:22:10;;;;;;;0.00;0.00;;;14.80;59.20;;;;;;4214295;28;20076;-40
2021/01/05 11:24:34;;;;;;;0.10;0.10;;;14.80;59.50;;;;;;4213901;28;20054;-40
2021/01/05 11:26:56;;;;;;;0.52;0.52;;;14.80;59.40;;;;;;4213381;28;20490;-41
2021/01/05 11:29:19;;;;;;;0.00;0.00;;;14.90;59.20;;;;;;4204077;28;20055;-41
2021/01/05 11:31:40;;;;;;;0.00;0.00;;;15.00;59.10;;;;;;4214143;28;20052;-41
2021/01/05 11:34:01;;;;;;;0.00;0.00;;;15.00;59.00;;;;;;4214148;28;20048;-41
2021/01/05 11:36:23;;;;;;;;;;;15.00;59.00;;;;;;4214434;28;20425;-40
2021/01/05 11:38:44;;;;;;;;;;;15.00;59.30;;;;;;4210174;28;19969;-40
2021/01/05 11:41:05;;;;;;;0.00;0.00;;;15.00;59.20;;;;;;4212938;28;20317;-40
2021/01/05 11:43:25;;;;;;;0.00;0.00;;;14.90;59.30;;;;;;4212606;28;20387;-40
2021/01/05 11:45:47;;;;;;;0.00;0.00;;;14.80;59.40;;;;;;4210443;28;20494;-41
2021/01/05 11:48:08;;;;;;;0.10;0.10;;;14.70;59.70;;;;;;4214135;28;20052;-40
2021/01/05 11:50:29;;;;;;;;;;;14.70;59.90;;;;;;4214538;28;20052;-41
2021/01/05 11:52:52;;;;;;;0.00;0.00;;;14.50;60.00;;;;;;4204801;28;19994;-40
2021/01/05 11:55:14;;;;;;;0.00;0.00;;;14.50;60.30;;;;;;4213934;28;20060;-40
2021/01/05 11:57:35;;;;;;;0.00;0.00;;;14.50;60.30;;;;;;4213985;28;20486;-40
2021/01/05 11:59:56;;;;;;;0.00;0.00;;;14.70;60.00;;;;;;4214179;28;20044;-54
2021/01/05 12:02:18;;;;;;;0.55;0.55;;;14.80;59.60;;;;;;4213968;28;20075;-43
2021/01/05 12:04:39;;;;;;;0.00;0.00;;;15.00;59.10;;;;;;4213885;28;20695;-41
2021/01/05 12:07:00;;;;;;;0.00;0.00;;;15.30;58.60;;;;;;4214071;28;20056;-41
2021/01/05 12:09:26;;;;;;;0.00;0.00;;;15.40;59.40;;;;;;4199110;28;20057;-41
2021/01/05 12:11:47;;;;;;;0.00;0.00;;;15.20;59.20;;;;;;4207409;28;20052;-41
2021/01/05 12:14:08;;;;;;;0.00;0.00;;;15.10;59.30;;;;;;4213913;28;20131;-40
2021/01/05 12:16:38;;;;;;;0.00;0.00;;;15.00;59.60;;;;;;4213630;28;20101;-41
2021/01/05 12:19:01;;;;;;;0.00;0.00;;;15.00;59.50;;;;;;4212114;28;20056;-41
2021/01/05 12:21:24;;;;;;;0.00;0.00;;;14.90;59.60;;;;;;4213272;28;20229;-41
2021/01/05 12:23:45;;;;;;;0.00;0.00;;;14.80;59.70;;;;;;4208338;28;20059;-41
2021/01/05 12:26:06;;;;;;;0.13;0.13;;;14.70;60.00;;;;;;4211447;28;20442;-41
2021/01/05 12:28:27;;;;;;;0.00;0.00;;;14.70;60.40;;;;;;4209887;28;20049;-41
2021/01/05 12:30:48;;;;;;;0.00;0.00;;;14.70;60.30;;;;;;4203073;28;20046;-41
2021/01/05 12:33:10;;;;;;;0.05;0.05;;;15.00;59.90;;;;;;4214007;28;20306;-42
2021/01/05 12:35:32;;;;;;;1.25;0.32;;;15.10;59.80;;;;;;4213884;28;20395;-42
2021/01/05 12:37:53;;;;;;;7.13;0.75;;;15.00;59.70;;;;;;4213753;28;20499;-41
2021/01/05 12:40:15;;;;;;;;;;;15.00;59.80;;;;;;4214091;28;20126;-41
2021/01/05 12:42:35;;;;;;;0.00;0.00;;;15.00;59.60;;;;;;4208824;28;19924;-45
2021/01/05 12:44:56;;;;;;;0.00;0.00;;;15.10;59.40;;;;;;4213103;28;20302;-41